Martic, Pennsylvania
Current Conditions -  °F | °C
As of 8:53 PM on Monday 24 Nov 2014 (Local Time) from KLNS Reporting Station
Clear Clear  
Wind Chill: 61°   Ceiling: Unl
Heat Index: 61°   Visibility: 10mi
Dew Point: 51°   Wind: 10mph
Humidity: 70%   Direction: 200°SSW
Pressure: 29.69"   Gusts: NA
Location:  39.9024°N, 76.3233°W
Report Text: KLNS 250153Z 20009KT 10SM CLR 16/11 A2969 RMK AO2 SLP051 T01610106
Loading
Personal Weather Stations






























Interactive Weather Map New forecast layout! Learn more

10-Day Weather Forecast

Advertisements
Track Severe Weather on mobile